Time;durP1;ratioP1;P1;durP2;ratioP2;P2;SDS_P1;SDS_P2;PMS_P1;PMS_P2;Temp;Humidity;BMP_temperature;BMP_pressure;BME280_temperature;BME280_humidity;BME280_pressure;Samples;Min_cycle;Max_cycle;Signal;HPM_P1;HPM_P2
2023/01/20 00:22:52;;;;;;;1.48;0.95;;;;;;;8.00;80.36;93510.03;4229563;27;20388;-63
2023/01/20 00:24:54;;;;;;;1.67;0.70;;;;;;;7.87;80.73;93522.00;4175004;28;20057;-62
2023/01/20 00:26:55;;;;;;;1.67;0.93;;;;;;;7.93;80.32;93526.53;4192258;28;20498;-61
2023/01/20 00:28:57;;;;;;;2.00;1.00;;;;;;;8.02;80.36;93525.47;4192667;28;20053;-61
2023/01/20 00:31:09;;;;;;;1.95;0.80;;;;;;;8.10;80.17;93537.69;4192718;28;20048;-63
2023/01/20 00:33:11;;;;;;;2.33;1.30;;;;;;;8.18;79.82;93546.25;4192352;28;20060;-63
2023/01/20 00:35:13;;;;;;;2.78;1.30;;;;;;;8.25;80.20;93540.34;4192942;28;20045;-61
2023/01/20 00:37:15;;;;;;;2.58;1.40;;;;;;;8.21;80.31;93527.66;4192238;28;20107;-63
2023/01/20 00:39:17;;;;;;;2.80;1.60;;;;;;;8.27;80.14;93513.09;4188800;28;20079;-62
2023/01/20 00:41:19;;;;;;;3.78;1.50;;;;;;;8.34;79.76;93502.78;4192385;28;20190;-62
2023/01/20 00:43:21;;;;;;;2.05;1.13;;;;;;;8.40;79.32;93494.25;4173771;28;20075;-61
2023/01/20 00:45:22;;;;;;;3.00;1.45;;;;;;;8.43;78.61;93490.50;4188909;28;20049;-60
2023/01/20 00:47:24;;;;;;;2.13;1.42;;;;;;;8.45;78.31;93483.31;4192360;28;20106;-61
2023/01/20 00:49:25;;;;;;;2.10;1.20;;;;;;;8.31;77.59;93492.69;4192568;28;20049;-62
2023/01/20 00:51:27;;;;;;;2.25;1.25;;;;;;;7.95;78.89;93498.47;4192040;28;20048;-60
2023/01/20 00:53:29;;;;;;;1.67;0.90;;;;;;;7.74;79.07;93512.94;4192131;28;20053;-59
2023/01/20 00:55:31;;;;;;;3.35;1.45;;;;;;;7.47;80.74;93497.75;4192336;28;20057;-63
2023/01/20 00:57:32;;;;;;;3.03;1.58;;;;;;;7.48;81.12;93513.19;4182963;28;20099;-63
2023/01/20 00:59:34;;;;;;;3.72;1.30;;;;;;;7.47;81.14;93506.38;4188855;28;20482;-60
2023/01/20 01:01:36;;;;;;;1.42;0.80;;;;;;;7.50;79.57;93484.38;4192002;28;20044;-60
2023/01/20 01:03:37;;;;;;;2.35;1.00;;;;;;;7.52;79.47;93498.84;4192266;28;20102;-60
2023/01/20 01:05:39;;;;;;;3.92;1.25;;;;;;;7.49;79.81;93501.00;4192389;28;20740;-60
2023/01/20 01:07:41;;;;;;;4.72;1.58;;;;;;;7.47;80.76;93489.94;4191528;28;20045;-60
2023/01/20 01:09:42;;;;;;;4.13;1.75;;;;;;;7.56;80.71;93497.53;4191682;28;20056;-59
2023/01/20 01:11:44;;;;;;;2.28;1.30;;;;;;;7.62;80.12;93487.44;4190434;28;20448;-60
2023/01/20 01:13:46;;;;;;;2.38;1.20;;;;;;;7.65;79.83;93518.34;4192446;28;20171;-61
2023/01/20 01:15:48;;;;;;;1.70;1.10;;;;;;;7.66;78.94;93505.16;4192099;28;20455;-60
2023/01/20 01:17:51;;;;;;;1.55;0.93;;;;;;;7.64;78.98;93493.28;4156093;28;20056;-60
2023/01/20 01:19:53;;;;;;;1.38;0.70;;;;;;;7.73;78.42;93498.28;4165209;28;20060;-61
2023/01/20 01:21:54;;;;;;;5.43;1.13;;;;;;;7.74;77.40;93507.72;4189481;28;20045;-60
2023/01/20 01:23:56;;;;;;;1.90;1.23;;;;;;;7.68;77.99;93502.38;4180972;28;20455;-56
2023/01/20 01:25:58;;;;;;;2.05;1.13;;;;;;;7.61;77.58;93524.88;4180429;28;20174;-57
2023/01/20 01:27:59;;;;;;;3.47;1.05;;;;;;;7.61;78.26;93501.44;4179983;28;20056;-58
2023/01/20 01:30:01;;;;;;;1.33;0.77;;;;;;;7.73;78.14;93487.03;4181053;28;20051;-60
2023/01/20 01:32:03;;;;;;;2.05;0.80;;;;;;;7.86;77.04;93502.13;4180738;28;20045;-59
2023/01/20 01:34:05;;;;;;;2.90;0.90;;;;;;;8.02;76.21;93496.00;4175384;28;20091;-59
2023/01/20 01:36:11;;;;;;;1.15;0.73;;;;;;;8.19;75.45;93494.91;4180593;28;20045;-58
2023/01/20 01:38:12;;;;;;;0.70;0.52;;;;;;;8.35;75.16;93510.44;4175101;28;20103;-59
2023/01/20 01:40:14;;;;;;;2.75;0.75;;;;;;;8.40;74.46;93502.09;4176606;28;20045;-59
2023/01/20 01:42:18;;;;;;;2.60;0.90;;;;;;;8.33;74.09;93501.16;4178380;28;20056;-60
2023/01/20 01:44:20;;;;;;;1.20;0.65;;;;;;;8.39;74.84;93505.69;4180604;28;20462;-56
2023/01/20 01:46:22;;;;;;;0.95;0.60;;;;;;;8.42;74.58;93496.72;4180686;28;20053;-59
2023/01/20 01:48:38;;;;;;;1.17;0.60;;;;;;;8.49;74.49;93505.47;4176637;28;20072;-58
2023/01/20 01:50:54;;;;;;;3.38;0.90;;;;;;;8.61;74.33;93509.28;4178116;28;20056;-56
2023/01/20 01:52:56;;;;;;;1.92;0.93;;;;;;;8.63;73.71;93520.38;4162628;28;20053;-60
2023/01/20 01:54:58;;;;;;;1.15;0.60;;;;;;;8.72;74.04;93515.91;4180614;28;20068;-60
2023/01/20 01:57:00;;;;;;;1.65;0.93;;;;;;;8.77;74.02;93522.19;4179171;28;20102;-61
2023/01/20 01:59:02;;;;;;;0.55;0.50;;;;;;;8.78;74.15;93521.22;4180326;28;20086;-59
2023/01/20 02:01:04;;;;;;;1.08;0.50;;;;;;;8.79;73.47;93509.78;4180191;28;20126;-60
2023/01/20 02:03:06;;;;;;;2.10;0.70;;;;;;;8.73;72.99;93507.06;4180009;28;20045;-61
2023/01/20 02:05:09;;;;;;;1.45;0.70;;;;;;;8.77;73.63;93511.75;4146412;28;20046;-61
2023/01/20 02:07:14;;;;;;;1.50;0.70;;;;;;;8.83;73.55;93512.84;4158587;28;20050;-56
2023/01/20 02:09:16;;;;;;;3.65;1.48;;;;;;;8.89;73.54;93506.13;4176186;28;20049;-61
2023/01/20 02:11:18;;;;;;;1.67;0.98;;;;;;;8.93;73.42;93497.75;4176908;28;20053;-60
2023/01/20 02:13:19;;;;;;;1.75;1.08;;;;;;;8.94;73.26;93496.75;4175477;28;20045;-60
2023/01/20 02:15:25;;;;;;;1.77;1.20;;;;;;;8.96;73.01;93479.09;4162154;28;20108;-58
2023/01/20 02:17:48;;;;;;;2.33;1.45;;;;;;;8.96;72.09;93470.44;4179886;28;20106;-59
2023/01/20 02:20:28;;;;;;;2.33;1.25;;;;;;;8.92;72.02;93474.41;4180055;28;20076;-60
2023/01/20 02:22:50;;;;;;;2.13;1.13;;;;;;;8.87;72.74;93488.00;4173319;28;20061;-60
2023/01/20 02:24:52;;;;;;;1.67;0.90;;;;;;;8.75;72.35;93481.59;4168055;28;20048;-59
2023/01/20 02:27:10;;;;;;;2.47;1.08;;;;;;;8.64;72.16;93482.81;4178862;28;20092;-60
2023/01/20 02:29:49;;;;;;;2.00;1.30;;;;;;;8.57;73.38;93477.50;4160341;28;20112;-59
2023/01/20 02:32:18;;;;;;;1.88;1.17;;;;;;;8.65;73.45;93471.41;4166458;28;20133;-60
2023/01/20 02:34:29;;;;;;;1.67;0.98;;;;;;;8.72;74.11;93476.72;4166627;28;20098;-59
2023/01/20 02:37:09;;;;;;;1.38;0.90;;;;;;;8.79;74.00;93475.81;4179785;28;20099;-59
2023/01/20 02:39:17;;;;;;;1.70;0.80;;;;;;;8.76;73.66;93476.19;4111710;28;20461;-61
2023/01/20 02:42:06;;;;;;;1.13;0.80;;;;;;;8.70;73.41;93474.28;4137426;28;20127;-60
2023/01/20 02:44:19;;;;;;;1.67;1.00;;;;;;;8.63;73.90;93464.75;4112393;28;20058;-59
2023/01/20 02:46:31;;;;;;;2.17;1.15;;;;;;;8.64;74.97;93458.53;4129208;28;20045;-57
2023/01/20 02:48:33;;;;;;;3.22;1.17;;;;;;;8.66;74.64;93459.97;4177912;28;20106;-61
2023/01/20 02:50:41;;;;;;;3.50;1.15;;;;;;;8.70;75.06;93450.78;4168938;28;20533;-60
2023/01/20 02:52:45;;;;;;;1.77;1.10;;;;;;;8.75;74.69;93458.09;4160916;28;20049;-58
2023/01/20 02:54:49;;;;;;;2.50;1.33;;;;;;;8.78;74.46;93452.53;4161973;28;20046;-60
2023/01/20 02:56:52;;;;;;;2.80;1.60;;;;;;;8.79;74.08;93441.06;4160431;28;20096;-58
2023/01/20 02:59:10;;;;;;;3.58;1.60;;;;;;;8.82;74.00;93436.31;4162192;28;20140;-59
2023/01/20 03:01:16;;;;;;;3.72;1.77;;;;;;;8.85;74.36;93424.69;4179389;28;20406;-61
2023/01/20 03:03:22;;;;;;;3.88;2.20;;;;;;;8.83;74.74;93431.91;4179587;28;20048;-59
2023/01/20 03:05:32;;;;;;;3.33;1.88;;;;;;;8.81;74.39;93431.25;4161536;28;20049;-58
2023/01/20 03:07:35;;;;;;;2.85;1.85;;;;;;;8.87;73.95;93446.22;4161154;28;20538;-56
2023/01/20 03:09:42;;;;;;;3.05;1.70;;;;;;;8.89;74.37;93452.06;4161472;28;20060;-59
2023/01/20 03:11:49;;;;;;;3.60;2.22;;;;;;;8.87;73.76;93445.41;4158324;28;20154;-59
2023/01/20 03:13:58;;;;;;;3.60;2.00;;;;;;;8.91;74.30;93434.44;4161900;28;20515;-58
2023/01/20 03:16:04;;;;;;;4.82;1.85;;;;;;;8.92;74.05;93438.66;4178819;28;20683;-60
2023/01/20 03:18:05;;;;;;;2.78;1.58;;;;;;;8.94;74.42;93439.28;4161367;28;20041;-59
2023/01/20 03:20:08;;;;;;;3.53;1.75;;;;;;;8.94;73.87;93438.47;4160611;28;20052;-59
2023/01/20 03:22:10;;;;;;;2.40;1.50;;;;;;;8.92;74.30;93443.88;4178201;28;20081;-58
2023/01/20 03:24:11;;;;;;;2.63;1.40;;;;;;;8.94;73.46;93441.88;4179020;28;20136;-59
2023/01/20 03:26:14;;;;;;;2.15;1.33;;;;;;;8.93;74.05;93439.47;4178944;28;20049;-59
2023/01/20 03:28:16;;;;;;;2.25;1.38;;;;;;;8.90;73.99;93445.84;4136686;28;20119;-59
2023/01/20 03:30:18;;;;;;;2.35;1.25;;;;;;;8.88;74.48;93445.22;4173524;28;20056;-59
2023/01/20 03:32:25;;;;;;;2.42;1.00;;;;;;;8.84;74.18;93440.53;4165497;28;20112;-59
2023/01/20 03:34:29;;;;;;;3.75;1.05;;;;;;;8.83;74.15;93450.19;4162173;28;20075;-59
2023/01/20 03:36:31;;;;;;;2.33;1.08;;;;;;;8.85;74.61;93439.56;4169973;28;20091;-60
2023/01/20 03:38:33;;;;;;;1.67;0.80;;;;;;;8.85;74.96;93445.59;4175232;28;20083;-58
2023/01/20 03:40:42;;;;;;;3.67;1.30;;;;;;;8.87;75.18;93448.81;4161032;28;20623;-59
2023/01/20 03:43:02;;;;;;;2.65;1.23;;;;;;;8.88;74.72;93444.41;4177522;28;20076;-62
2023/01/20 03:45:10;;;;;;;1.63;1.00;;;;;;;8.85;75.09;93453.41;4179008;28;20056;-62
2023/01/20 03:47:19;;;;;;;1.60;0.95;;;;;;;8.82;74.93;93453.78;4175812;28;20053;-62
2023/01/20 03:49:55;;;;;;;2.42;1.20;;;;;;;8.79;75.23;93431.44;4152667;28;20133;-62
2023/01/20 03:52:14;;;;;;;2.28;0.90;;;;;;;8.72;74.92;93427.13;4164970;28;20487;-60
2023/01/20 03:54:22;;;;;;;2.28;0.98;;;;;;;8.71;75.34;93413.25;4161238;28;20049;-59
2023/01/20 03:56:42;;;;;;;2.30;0.98;;;;;;;8.79;75.58;93409.75;4178920;28;20053;-62
2023/01/20 03:58:48;;;;;;;1.30;0.85;;;;;;;8.81;75.38;93405.94;4158982;28;20062;-62
2023/01/20 04:00:50;;;;;;;6.35;1.38;;;;;;;8.86;75.55;93396.78;4161002;28;20545;-62
2023/01/20 04:02:54;;;;;;;4.05;1.25;;;;;;;8.88;74.99;93400.00;4177776;28;20490;-61
2023/01/20 04:04:56;;;;;;;2.55;1.20;;;;;;;8.90;75.24;93385.78;4160070;28;20053;-61
2023/01/20 04:06:58;;;;;;;3.53;1.00;;;;;;;8.93;75.23;93393.28;4178432;28;20147;-62
2023/01/20 04:09:11;;;;;;;1.35;0.80;;;;;;;8.97;75.64;93383.25;4168962;28;20053;-62
2023/01/20 04:11:13;;;;;;;1.58;0.80;;;;;;;8.98;75.75;93382.28;4192599;28;20140;-65
2023/01/20 04:13:15;;;;;;;2.05;0.93;;;;;;;8.97;74.91;93385.88;4176823;28;20107;-61
2023/01/20 04:15:17;;;;;;;4.65;1.20;;;;;;;8.98;75.99;93390.09;4175188;28;20044;-59
2023/01/20 04:17:19;;;;;;;2.92;1.60;;;;;;;9.01;74.93;93382.72;4159491;28;20465;-62
2023/01/20 04:19:21;;;;;;;2.00;1.08;;;;;;;8.95;75.71;93369.59;4149019;28;20045;-61
2023/01/20 04:21:30;;;;;;;5.82;1.40;;;;;;;8.91;75.29;93369.13;4178482;28;20091;-61
2023/01/20 04:23:38;;;;;;;2.78;1.30;;;;;;;8.92;75.15;93352.47;4152357;28;20053;-62
2023/01/20 04:25:39;;;;;;;3.38;0.98;;;;;;;8.88;75.70;93358.22;4176127;28;20057;-63
2023/01/20 04:27:41;;;;;;;1.17;0.80;;;;;;;8.75;76.40;93364.09;4176062;28;20107;-62
2023/01/20 04:29:43;;;;;;;2.97;0.95;;;;;;;8.52;77.50;93365.00;4159203;28;20119;-62
2023/01/20 04:31:44;;;;;;;3.22;0.90;;;;;;;8.47;77.89;93363.91;4178229;28;20141;-60
2023/01/20 04:33:46;;;;;;;3.58;1.17;;;;;;;8.47;78.07;93356.88;4160474;28;20461;-61
2023/01/20 04:35:48;;;;;;;6.07;1.08;;;;;;;8.47;77.70;93363.91;4147893;28;20178;-60
2023/01/20 04:37:49;;;;;;;2.75;1.35;;;;;;;8.49;78.12;93367.94;4178277;28;20102;-62
2023/01/20 04:39:52;;;;;;;4.82;1.27;;;;;;;8.48;78.34;93363.72;4144494;28;20053;-63
2023/01/20 04:41:54;;;;;;;3.17;1.35;;;;;;;8.51;78.82;93371.19;4177772;28;20482;-63
2023/01/20 04:43:55;;;;;;;4.93;1.63;;;;;;;8.59;78.40;93371.09;4163625;28;20064;-62
2023/01/20 04:45:57;;;;;;;2.58;1.25;;;;;;;8.69;78.46;93383.91;4178549;28;20056;-62
2023/01/20 04:47:59;;;;;;;3.63;1.60;;;;;;;8.80;78.38;93377.44;4160312;28;20104;-60
2023/01/20 04:50:00;;;;;;;3.15;1.30;;;;;;;8.85;77.89;93379.50;4177940;28;20091;-63
2023/01/20 04:52:02;;;;;;;3.05;1.45;;;;;;;8.91;77.95;93390.03;4177913;28;20053;-61
2023/01/20 04:54:04;;;;;;;3.72;1.38;;;;;;;8.94;77.35;93394.06;4160468;28;20054;-63
2023/01/20 04:56:10;;;;;;;5.25;1.40;;;;;;;8.98;77.07;93383.06;4178263;28;20053;-61
2023/01/20 04:58:12;;;;;;;2.72;1.33;;;;;;;9.05;76.98;93392.81;4148364;28;20149;-60
2023/01/20 05:00:18;;;;;;;4.20;1.50;;;;;;;9.08;76.69;93397.66;4169208;28;20049;-62
2023/01/20 05:02:20;;;;;;;4.72;1.42;;;;;;;9.05;76.58;93411.09;4172853;28;20049;-61
2023/01/20 05:04:22;;;;;;;2.75;1.90;;;;;;;9.02;76.36;93407.84;4176237;28;20052;-62
2023/01/20 05:06:23;;;;;;;4.97;2.10;;;;;;;9.06;77.09;93428.41;4181159;28;20108;-63
2023/01/20 05:08:25;;;;;;;3.67;2.53;;;;;;;9.04;76.15;93435.59;4176220;28;20087;-65
2023/01/20 05:10:27;;;;;;;4.25;2.50;;;;;;;8.95;76.25;93427.84;4172939;28;20056;-63
2023/01/20 05:12:28;;;;;;;6.28;2.63;;;;;;;8.86;76.58;93420.28;4180234;28;20498;-64
2023/01/20 05:14:30;;;;;;;3.67;2.63;;;;;;;8.81;76.54;93421.63;4149652;28;20085;-63
2023/01/20 05:16:32;;;;;;;5.82;3.28;;;;;;;8.61;78.34;93410.91;4180650;28;20355;-62
2023/01/20 05:18:34;;;;;;;4.88;3.22;;;;;;;8.53;78.27;93403.16;4180888;28;20049;-63
2023/01/20 05:20:36;;;;;;;7.38;2.95;;;;;;;8.57;79.13;93409.63;4180644;28;20136;-62
2023/01/20 05:22:38;;;;;;;7.18;3.38;;;;;;;8.63;78.72;93415.16;4180843;28;20045;-61
2023/01/20 05:24:39;;;;;;;3.97;2.55;;;;;;;8.74;79.35;93423.34;4181094;28;20044;-63
2023/01/20 05:26:41;;;;;;;4.10;2.63;;;;;;;8.80;79.09;93414.78;4180756;28;20132;-62
2023/01/20 05:28:44;;;;;;;4.45;2.30;;;;;;;8.82;78.52;93417.22;4162929;28;20045;-62
2023/01/20 05:30:47;;;;;;;6.30;2.80;;;;;;;8.82;78.48;93425.88;4180888;28;20081;-63
2023/01/20 05:32:49;;;;;;;4.28;2.63;;;;;;;8.84;78.87;93430.09;4180868;28;20055;-62
2023/01/20 05:34:51;;;;;;;6.70;3.53;;;;;;;8.81;79.09;93441.72;4180289;28;20060;-63
2023/01/20 05:36:53;;;;;;;3.83;2.72;;;;;;;8.82;79.44;93443.34;4181075;28;20069;-64
2023/01/20 05:38:55;;;;;;;6.40;3.17;;;;;;;8.86;79.23;93439.34;4179534;28;20163;-63
2023/01/20 05:41:05;;;;;;;7.22;3.47;;;;;;;8.89;79.40;93439.00;4176290;28;20103;-63
2023/01/20 05:43:07;;;;;;;4.40;3.17;;;;;;;8.74;78.42;93422.53;4154300;28;20045;-63
2023/01/20 05:45:09;;;;;;;5.20;3.70;;;;;;;8.65;78.86;93421.81;4180108;28;20474;-65
2023/01/20 05:47:10;;;;;;;6.85;3.70;;;;;;;8.46;79.93;93409.28;4161343;28;20054;-63
2023/01/20 05:49:12;;;;;;;8.25;3.97;;;;;;;8.42;80.10;93408.00;4180971;28;20096;-63
2023/01/20 05:51:14;;;;;;;6.80;3.90;;;;;;;8.46;80.97;93397.03;4181178;28;20049;-63
2023/01/20 05:53:16;;;;;;;7.68;4.05;;;;;;;8.57;81.08;93406.22;4180318;28;20510;-63
2023/01/20 05:55:18;;;;;;;8.70;4.15;;;;;;;8.64;81.39;93382.81;4180963;28;20052;-65
2023/01/20 05:57:23;;;;;;;6.00;4.05;;;;;;;8.29;80.73;93367.63;4179263;28;20063;-64
2023/01/20 05:59:25;;;;;;;7.38;4.80;;;;;;;8.25;81.33;93397.66;4179752;28;20128;-62
2023/01/20 06:01:26;;;;;;;7.18;4.20;;;;;;;8.30;81.69;93420.63;4180427;28;20052;-62
2023/01/20 06:03:28;;;;;;;6.30;4.00;;;;;;;8.45;81.84;93411.03;4180676;28;20045;-61
2023/01/20 06:05:30;;;;;;;6.38;4.00;;;;;;;8.54;81.88;93410.00;4180606;28;20131;-63
2023/01/20 06:07:32;;;;;;;7.68;4.32;;;;;;;8.67;81.53;93414.59;4161184;28;20045;-63
2023/01/20 06:09:33;;;;;;;6.85;3.90;;;;;;;8.76;81.24;93420.56;4180333;28;20110;-63
2023/01/20 06:11:35;;;;;;;9.20;4.82;;;;;;;8.81;80.54;93410.38;4178949;28;20505;-65
2023/01/20 06:13:38;;;;;;;9.38;6.30;;;;;;;8.80;79.63;93409.56;4179762;28;20048;-64
2023/01/20 06:15:40;;;;;;;10.65;7.15;;;;;;;8.79;80.01;93421.00;4180439;28;20056;-64
2023/01/20 06:17:41;;;;;;;9.98;6.95;;;;;;;8.82;80.21;93433.69;4177920;28;20447;-62
2023/01/20 06:19:43;;;;;;;13.82;9.13;;;;;;;8.87;80.40;93425.31;4180343;28;20052;-63
2023/01/20 06:21:46;;;;;;;10.05;7.35;;;;;;;8.89;79.86;93419.94;4179801;28;20103;-62
2023/01/20 06:23:48;;;;;;;5.93;4.72;;;;;;;8.86;79.15;93412.44;4180416;28;20049;-65
2023/01/20 06:26:00;;;;;;;7.85;4.72;;;;;;;8.84;80.06;93415.25;4149237;28;20610;-62
2023/01/20 06:28:02;;;;;;;6.75;4.10;;;;;;;8.85;79.77;93426.50;4150631;28;20462;-62
2023/01/20 06:30:05;;;;;;;6.65;4.05;;;;;;;8.88;80.53;93411.25;4159019;28;20045;-62
2023/01/20 06:32:06;;;;;;;7.45;4.25;;;;;;;8.88;80.11;93379.91;4162132;28;20103;-64
2023/01/20 06:34:09;;;;;;;8.23;4.07;;;;;;;8.61;80.41;93399.66;4180189;28;20056;-64
2023/01/20 06:36:12;;;;;;;5.40;3.87;;;;;;;8.44;80.48;93409.44;4162360;28;20041;-64
2023/01/20 06:38:14;;;;;;;6.30;4.07;;;;;;;8.48;81.55;93422.94;4180205;28;20049;-65
2023/01/20 06:40:16;;;;;;;7.03;4.10;;;;;;;8.55;81.55;93416.81;4161990;28;20566;-65
2023/01/20 06:42:18;;;;;;;8.23;4.40;;;;;;;8.50;81.24;93413.16;4161566;28;20104;-66
2023/01/20 06:44:20;;;;;;;6.68;4.00;;;;;;;8.52;81.03;93422.41;4179226;28;20040;-64
2023/01/20 06:46:21;;;;;;;6.40;4.32;;;;;;;8.50;80.91;93407.94;4180449;28;20390;-64
2023/01/20 06:48:23;;;;;;;7.50;4.38;;;;;;;8.26;81.45;93395.88;4179462;28;20132;-65
2023/01/20 06:50:25;;;;;;;6.75;4.03;;;;;;;8.27;82.07;93397.50;4179106;28;20052;-64
2023/01/20 06:52:26;;;;;;;5.53;4.28;;;;;;;8.23;82.28;93404.06;4179279;28;20045;-61
2023/01/20 06:54:28;;;;;;;6.57;4.20;;;;;;;8.26;82.49;93403.69;4179809;28;20565;-62
2023/01/20 06:56:30;;;;;;;7.57;3.75;;;;;;;8.17;82.26;93402.94;4156828;28;20053;-63
2023/01/20 06:58:32;;;;;;;8.25;4.15;;;;;;;8.11;82.80;93398.44;4175212;28;20095;-61
2023/01/20 07:00:34;;;;;;;7.05;3.75;;;;;;;8.17;83.35;93402.94;4179812;28;20050;-63
2023/01/20 07:02:36;;;;;;;7.38;3.90;;;;;;;8.28;83.77;93397.34;4162349;28;20510;-62
2023/01/20 07:04:38;;;;;;;6.65;4.20;;;;;;;8.41;83.27;93394.16;4179739;28;20052;-59
2023/01/20 07:06:40;;;;;;;8.02;3.53;;;;;;;8.50;81.94;93392.28;4179083;28;20513;-59
2023/01/20 07:08:43;;;;;;;6.97;3.95;;;;;;;8.55;81.87;93388.13;4194346;28;20059;-59
2023/01/20 07:10:45;;;;;;;5.97;3.47;;;;;;;8.47;80.77;93388.19;4179562;28;20622;-58
2023/01/20 07:12:47;;;;;;;4.25;2.78;;;;;;;8.40;81.17;93389.88;4177661;28;20045;-64
2023/01/20 07:14:48;;;;;;;8.70;3.38;;;;;;;8.38;81.78;93395.25;4179514;28;20473;-64
2023/01/20 07:16:50;;;;;;;5.65;3.33;;;;;;;8.26;81.67;93404.53;4179261;28;20049;-63
2023/01/20 07:18:52;;;;;;;5.88;3.22;;;;;;;8.31;81.05;93409.22;4179923;28;20051;-63
2023/01/20 07:20:55;;;;;;;7.88;4.68;;;;;;;8.18;81.27;93407.19;4161369;28;20483;-64
2023/01/20 07:23:01;;;;;;;6.72;5.03;;;;;;;8.07;82.81;93394.59;4162621;28;20041;-65
2023/01/20 07:25:03;;;;;;;10.00;6.68;;;;;;;8.19;82.58;93395.75;4163687;28;20553;-66
2023/01/20 07:27:04;;;;;;;9.95;5.28;;;;;;;8.18;81.88;93402.78;4162294;28;20459;-62
2023/01/20 07:29:06;;;;;;;9.38;5.20;;;;;;;8.21;81.44;93402.41;4162300;28;20068;-65
2023/01/20 07:31:16;;;;;;;9.57;5.97;;;;;;;8.21;81.76;93397.19;4163240;28;20095;-65
2023/01/20 07:33:18;;;;;;;7.93;6.03;;;;;;;8.37;81.89;93404.09;4161258;28;20045;-66
2023/01/20 07:35:19;;;;;;;9.27;5.82;;;;;;;8.51;82.04;93399.09;4163013;28;20106;-65
2023/01/20 07:37:21;;;;;;;7.30;6.10;;;;;;;8.63;81.38;93391.66;4161811;28;20523;-65
2023/01/20 07:39:23;;;;;;;13.18;7.00;;;;;;;8.73;81.71;93379.97;4162557;28;20107;-65
2023/01/20 07:41:24;;;;;;;7.95;6.32;;;;;;;8.81;80.93;93376.41;4162498;28;20072;-65
2023/01/20 07:43:26;;;;;;;9.23;5.95;;;;;;;8.91;80.96;93373.56;4159341;28;20450;-63
2023/01/20 07:45:28;;;;;;;7.20;4.90;;;;;;;8.94;79.88;93363.53;4162735;28;20045;-64
2023/01/20 07:47:30;;;;;;;6.20;4.53;;;;;;;8.95;79.44;93365.16;4162930;28;20054;-62
2023/01/20 07:49:32;;;;;;;8.43;4.50;;;;;;;8.98;79.23;93362.19;4162183;28;20119;-63
2023/01/20 07:51:33;;;;;;;6.03;3.75;;;;;;;8.89;78.35;93365.09;4161108;28;20514;-65
2023/01/20 07:53:45;;;;;;;6.90;3.45;;;;;;;8.74;78.54;93358.06;4162042;28;20045;-64
2023/01/20 07:55:47;;;;;;;6.30;3.92;;;;;;;8.66;78.42;93355.53;4162990;28;20053;-69
2023/01/20 07:57:49;;;;;;;8.15;4.05;;;;;;;8.52;78.81;93345.91;4160018;28;20057;-62
2023/01/20 07:59:51;;;;;;;7.70;3.78;;;;;;;8.46;79.54;93354.47;4147525;28;20077;-65
2023/01/20 08:01:52;;;;;;;6.35;4.05;;;;;;;8.39;79.84;93364.78;4162943;28;20099;-64
2023/01/20 08:03:55;;;;;;;7.65;4.32;;;;;;;8.30;80.65;93360.59;4160661;28;20049;-60
2023/01/20 08:05:57;;;;;;;7.35;4.35;;;;;;;8.24;81.55;93359.53;4162112;28;20053;-59
2023/01/20 08:07:58;;;;;;;10.85;4.75;;;;;;;8.34;81.30;93346.22;4162509;28;20123;-60
2023/01/20 08:10:00;;;;;;;7.50;4.22;;;;;;;8.26;81.17;93331.47;4162884;28;20475;-62
2023/01/20 08:12:01;;;;;;;7.18;4.60;;;;;;;8.09;81.18;93330.00;4153788;28;20050;-61
2023/01/20 08:14:03;;;;;;;7.25;4.00;;;;;;;8.07;81.99;93329.38;4145125;28;20042;-62
2023/01/20 08:16:07;;;;;;;7.53;3.83;;;;;;;8.08;82.26;93326.56;4157590;28;20069;-61
2023/01/20 08:18:09;;;;;;;;;;;;;;;8.14;81.84;93331.09;4163162;28;20042;-59
2023/01/20 08:20:11;;;;;;;17.13;6.43;;;;;;;8.15;80.67;93343.16;4160621;28;19921;-62
2023/01/20 08:22:12;;;;;;;6.82;4.30;;;;;;;8.29;81.20;93353.78;4150820;28;20058;-62
2023/01/20 08:24:14;;;;;;;6.28;3.47;;;;;;;8.37;79.82;93356.31;4159972;28;20049;-61
2023/01/20 08:26:18;;;;;;;4.78;3.30;;;;;;;8.45;78.80;93358.03;4149935;28;20521;-63
2023/01/20 08:28:19;;;;;;;6.50;3.80;;;;;;;8.47;78.34;93354.25;4158934;28;20156;-62
2023/01/20 08:30:21;;;;;;;5.57;2.85;;;;;;;8.42;77.23;93354.00;4160484;28;20092;-61
2023/01/20 08:32:23;;;;;;;4.82;3.00;;;;;;;8.52;77.53;93349.34;4153496;28;20455;-61
2023/01/20 08:34:26;;;;;;;5.55;2.80;;;;;;;8.45;77.21;93345.81;4165269;28;20073;-61
2023/01/20 08:36:30;;;;;;;4.25;2.88;;;;;;;8.44;78.22;93344.19;4155942;28;20058;-62
2023/01/20 08:38:32;;;;;;;4.10;2.75;;;;;;;8.50;77.79;93327.81;4161925;28;20060;-61
2023/01/20 08:40:34;;;;;;;5.40;3.38;;;;;;;8.48;76.82;93316.75;4165797;28;20054;-62
2023/01/20 08:42:36;;;;;;;4.75;2.67;;;;;;;8.09;78.40;93307.34;4164270;28;20395;-62
2023/01/20 08:44:38;;;;;;;4.57;3.00;;;;;;;8.24;79.20;93299.53;4165168;28;20049;-61
2023/01/20 08:46:41;;;;;;;4.72;2.85;;;;;;;8.38;79.45;93290.88;4164916;28;20076;-62
2023/01/20 08:48:43;;;;;;;4.70;2.95;;;;;;;8.54;78.94;93294.31;4165551;28;20111;-62
2023/01/20 08:50:45;;;;;;;5.97;3.35;;;;;;;8.68;78.96;93290.09;4165537;28;20517;-59
2023/01/20 08:52:46;;;;;;;9.05;3.75;;;;;;;8.81;77.94;93270.16;4164860;28;20049;-59
2023/01/20 08:54:51;;;;;;;6.30;3.55;;;;;;;8.92;77.78;93271.50;4164874;28;20065;-60
2023/01/20 08:56:53;;;;;;;6.68;3.75;;;;;;;8.98;78.13;93264.72;4160235;28;20053;-62
2023/01/20 08:58:56;;;;;;;7.03;3.97;;;;;;;9.06;77.34;93261.22;4153739;28;20050;-62
2023/01/20 09:00:59;;;;;;;7.95;4.38;;;;;;;9.07;77.39;93270.66;4165188;28;20156;-61
2023/01/20 09:03:00;;;;;;;7.53;4.45;;;;;;;9.11;77.42;93275.31;4164944;28;20080;-60
2023/01/20 09:05:04;;;;;;;8.27;4.50;;;;;;;9.20;77.13;93276.00;4152274;28;20055;-60
2023/01/20 09:07:06;;;;;;;7.68;4.53;;;;;;;9.27;77.17;93269.06;4164979;28;20052;-59
2023/01/20 09:09:09;;;;;;;9.30;4.95;;;;;;;9.34;77.45;93267.31;4165130;28;20084;-62
2023/01/20 09:11:13;;;;;;;9.63;4.47;;;;;;;9.44;77.56;93261.78;4165055;28;20103;-61
2023/01/20 09:13:15;;;;;;;16.83;10.13;;;;;;;9.42;76.74;93272.44;4161534;28;20049;-60
2023/01/20 09:15:19;;;;;;;7.82;4.43;;;;;;;9.47;76.90;93274.47;4164942;28;20057;-61
2023/01/20 09:17:21;;;;;;;9.32;4.03;;;;;;;9.46;75.50;93283.31;4164903;28;20049;-61
2023/01/20 09:19:22;;;;;;;6.35;3.83;;;;;;;9.33;76.21;93278.75;4164481;28;20466;-60
2023/01/20 09:21:24;;;;;;;6.32;3.30;;;;;;;9.38;75.84;93283.44;4171007;28;20044;-61
2023/01/20 09:23:26;;;;;;;5.93;2.75;;;;;;;9.36;76.23;93288.84;4180958;28;20136;-63
2023/01/20 09:25:27;;;;;;;3.60;1.95;;;;;;;9.35;75.13;93278.56;4181514;28;20056;-66
2023/01/20 09:27:30;;;;;;;2.78;1.88;;;;;;;9.43;75.18;93279.25;4179956;28;20115;-64
2023/01/20 09:29:31;;;;;;;4.07;1.70;;;;;;;9.53;74.37;93268.50;4180644;28;20063;-65
2023/01/20 09:31:33;;;;;;;3.55;1.67;;;;;;;9.61;74.00;93275.41;4180986;28;20053;-63
2023/01/20 09:33:38;;;;;;;3.92;1.85;;;;;;;9.60;74.21;93274.59;4181306;28;20461;-64
2023/01/20 09:35:39;;;;;;;2.40;1.30;;;;;;;9.68;74.18;93276.28;4181073;28;20064;-67
2023/01/20 09:45:08;;;;;;;2.15;1.05;;;;;;;9.49;74.21;93264.66;4165879;28;20084;-64
2023/01/20 09:47:28;;;;;;;2.80;1.48;;;;;;;9.57;73.82;93274.97;4159489;28;20080;-65
2023/01/20 09:55:01;;;;;;;3.78;1.92;;;;;;;9.80;73.51;93269.53;4180890;28;20048;-64
2023/01/20 09:57:05;;;;;;;3.92;1.30;;;;;;;9.83;72.45;93261.31;4160146;28;20045;-66
2023/01/20 09:59:10;;;;;;;3.83;1.80;;;;;;;9.82;72.32;93257.06;4155091;28;20585;-66
2023/01/20 10:01:43;;;;;;;3.28;1.55;;;;;;;9.89;72.76;93257.13;4175673;28;20044;-64
2023/01/20 10:04:06;;;;;;;2.88;1.60;;;;;;;10.00;72.51;93253.16;4170695;28;20071;-63
2023/01/20 10:06:12;;;;;;;15.77;8.18;;;;;;;10.02;71.95;93251.16;4180998;28;20098;-65
2023/01/20 10:08:20;;;;;;;9.10;4.20;;;;;;;10.12;72.33;93250.84;4167060;28;20250;-66
2023/01/20 10:10:31;;;;;;;3.38;1.55;;;;;;;10.20;72.22;93250.69;4180814;28;20045;-66
2023/01/20 10:12:37;;;;;;;2.75;1.45;;;;;;;10.29;71.67;93248.72;4161617;28;20092;-65
2023/01/20 10:14:47;;;;;;;4.60;1.60;;;;;;;10.30;71.27;93245.13;4179639;28;20041;-64
2023/01/20 10:17:07;;;;;;;2.63;1.70;;;;;;;10.13;70.86;93234.13;4163175;28;20088;-63
2023/01/20 10:19:17;;;;;;;6.00;1.83;;;;;;;10.04;71.42;93212.53;4149772;28;20053;-68
2023/01/20 10:21:34;;;;;;;2.58;1.60;;;;;;;9.93;71.63;93208.66;4177880;28;20155;-65
2023/01/20 10:23:49;;;;;;;4.57;2.03;;;;;;;9.83;71.46;93205.59;4172891;28;20068;-65
2023/01/20 10:26:07;;;;;;;4.85;3.20;;;;;;;9.69;72.44;93207.28;4180190;28;20560;-65
2023/01/20 10:28:30;;;;;;;4.00;2.80;;;;;;;9.70;73.34;93221.16;4179431;28;20130;-66